createdAt,value
2023-03-29T00:00:15.921Z,4.80
2023-03-29T00:03:04.668Z,4.90
2023-03-29T00:05:37.928Z,5.30
2023-03-29T00:08:09.724Z,4.60
2023-03-29T00:10:38.426Z,5.20
2023-03-29T00:13:07.474Z,5.60
2023-03-29T00:15:38.123Z,4.50
2023-03-29T00:18:06.498Z,4.80
2023-03-29T00:20:36.708Z,4.90
2023-03-29T00:23:06.449Z,5.00
2023-03-29T00:25:56.696Z,4.30
2023-03-29T00:28:46.658Z,4.30
2023-03-29T00:31:18.250Z,4.60
2023-03-29T00:33:48.115Z,4.70
2023-03-29T00:36:22.677Z,5.00
2023-03-29T00:39:08.916Z,4.90
2023-03-29T00:41:41.806Z,4.60
2023-03-29T00:45:04.639Z,4.90
2023-03-29T00:48:03.957Z,4.30
2023-03-29T00:51:02.282Z,4.40
2023-03-29T00:53:39.823Z,4.30
2023-03-29T00:56:18.127Z,4.20
2023-03-29T00:59:06.078Z,4.50
2023-03-29T01:01:49.252Z,4.70
2023-03-29T01:04:42.784Z,4.80
2023-03-29T01:07:22.936Z,5.30
2023-03-29T01:10:00.010Z,5.10
2023-03-29T01:12:36.236Z,5.50
2023-03-29T01:15:14.307Z,5.00
2023-03-29T01:18:06.719Z,5.50
2023-03-29T01:20:51.006Z,5.40
2023-03-29T01:23:39.645Z,5.00
2023-03-29T01:26:34.303Z,5.30
2023-03-29T01:29:36.626Z,5.40
2023-03-29T01:32:14.620Z,5.50
2023-03-29T01:34:52.643Z,5.60
2023-03-29T01:37:33.039Z,5.00
2023-03-29T01:40:01.611Z,5.60
2023-03-29T01:42:50.385Z,5.90
2023-03-29T01:45:57.556Z,6.20
2023-03-29T01:48:41.312Z,6.30
2023-03-29T01:51:42.282Z,6.00
2023-03-29T01:54:26.343Z,5.20
2023-03-29T01:56:58.133Z,5.20
2023-03-29T01:59:32.518Z,6.40
2023-03-29T02:02:28.005Z,5.40
2023-03-29T02:04:59.482Z,5.10
2023-03-29T02:07:37.481Z,5.20
2023-03-29T02:10:08.504Z,5.50
2023-03-29T02:12:37.495Z,5.40
2023-03-29T02:15:12.372Z,6.10
2023-03-29T02:17:48.944Z,7.20
2023-03-29T02:20:41.605Z,5.60
2023-03-29T02:23:24.167Z,6.40
2023-03-29T02:25:54.011Z,6.00
2023-03-29T02:28:25.440Z,6.00
2023-03-29T02:30:56.403Z,6.60
2023-03-29T02:33:42.265Z,5.70
2023-03-29T02:36:19.047Z,5.80
2023-03-29T02:38:48.792Z,5.90
2023-03-29T02:41:18.217Z,6.50
2023-03-29T02:43:48.629Z,5.70
2023-03-29T02:46:19.997Z,6.70
2023-03-29T02:48:52.114Z,6.60
2023-03-29T02:51:33.493Z,6.50
2023-03-29T02:54:13.029Z,6.00
2023-03-29T02:56:48.849Z,6.10
2023-03-29T02:59:26.022Z,6.90
2023-03-29T03:01:55.369Z,7.00
2023-03-29T03:04:26.102Z,5.40
2023-03-29T03:06:54.952Z,6.60
2023-03-29T03:09:23.727Z,7.30
2023-03-29T03:11:54.134Z,7.10
2023-03-29T03:14:22.962Z,5.70
2023-03-29T03:16:53.711Z,6.60
2023-03-29T03:19:21.984Z,6.50
2023-03-29T03:21:52.002Z,6.10
2023-03-29T03:24:20.235Z,6.50
2023-03-29T03:26:48.624Z,6.60
2023-03-29T03:29:17.208Z,5.60
2023-03-29T03:35:03.097Z,5.80
2023-03-29T03:37:32.709Z,5.90
2023-03-29T03:40:02.004Z,5.40
2023-03-29T03:42:31.645Z,6.60
2023-03-29T03:45:00.017Z,7.00
2023-03-29T03:47:52.569Z,6.20
2023-03-29T03:50:55.851Z,7.30
2023-03-29T03:53:29.686Z,6.60
2023-03-29T03:56:24.639Z,6.60
2023-03-29T03:59:17.545Z,7.20
2023-03-29T04:01:55.094Z,6.30
2023-03-29T04:04:25.023Z,6.60
2023-03-29T04:07:13.287Z,6.40
2023-03-29T04:10:00.663Z,6.10
2023-03-29T04:12:54.572Z,7.00
2023-03-29T04:15:23.592Z,7.00
2023-03-29T04:18:01.860Z,5.90
2023-03-29T04:20:37.961Z,6.60
2023-03-29T04:23:06.355Z,7.20
2023-03-29T04:25:37.293Z,6.10
2023-03-29T04:28:05.938Z,6.60
2023-03-29T04:31:00.094Z,6.80
2023-03-29T04:33:47.736Z,5.50
2023-03-29T04:36:16.690Z,6.60
2023-03-29T04:38:47.692Z,6.50
2023-03-29T04:41:18.142Z,6.40
2023-03-29T04:44:21.873Z,6.20
2023-03-29T04:46:50.656Z,6.60
2023-03-29T04:49:26.162Z,6.20
2023-03-29T04:51:56.463Z,6.80
2023-03-29T04:54:27.947Z,5.90
2023-03-29T04:57:22.123Z,7.10
2023-03-29T05:00:35.958Z,6.90
2023-03-29T05:03:27.256Z,7.10
2023-03-29T05:06:22.874Z,6.50
2023-03-29T05:09:19.856Z,7.10
2023-03-29T05:12:10.343Z,7.10
2023-03-29T05:15:05.442Z,7.10
2023-03-29T05:17:42.440Z,7.50
2023-03-29T05:20:13.229Z,7.70
2023-03-29T05:22:42.800Z,7.50
2023-03-29T05:25:19.817Z,6.80
2023-03-29T05:27:48.210Z,7.00
2023-03-29T05:30:19.184Z,7.90
2023-03-29T05:33:02.559Z,7.70
2023-03-29T05:35:31.853Z,6.80
2023-03-29T05:38:00.852Z,7.00
2023-03-29T05:40:29.730Z,7.50
2023-03-29T05:43:21.050Z,7.00
2023-03-29T05:45:49.610Z,7.40
2023-03-29T05:48:18.535Z,6.40
2023-03-29T05:50:48.740Z,7.10
2023-03-29T05:53:17.624Z,8.10
2023-03-29T05:55:46.838Z,7.10
2023-03-29T05:58:18.162Z,7.20
2023-03-29T06:00:49.646Z,6.90
2023-03-29T06:03:27.868Z,7.00
2023-03-29T06:06:00.634Z,7.70
2023-03-29T06:08:30.668Z,6.20
2023-03-29T06:11:19.809Z,8.00
2023-03-29T06:14:08.272Z,7.40
2023-03-29T06:16:42.793Z,7.70
2023-03-29T06:19:13.540Z,7.70
2023-03-29T06:21:42.715Z,6.10
2023-03-29T06:24:13.562Z,6.60
2023-03-29T06:26:46.701Z,6.00
2023-03-29T06:29:16.832Z,6.60
2023-03-29T06:31:48.321Z,6.40
2023-03-29T06:34:38.565Z,6.40
2023-03-29T06:37:49.608Z,6.40
2023-03-29T06:40:39.891Z,6.30
2023-03-29T06:43:08.397Z,5.60
2023-03-29T06:47:29.549Z,6.00
2023-03-29T06:51:32.830Z,6.20
2023-03-29T06:56:06.180Z,6.40
2023-03-29T07:00:41.074Z,6.30
2023-03-29T07:05:15.314Z,5.70
2023-03-29T07:08:45.306Z,5.00
2023-03-29T07:12:22.525Z,5.40
2023-03-29T07:16:20.093Z,5.80
2023-03-29T07:19:15.410Z,6.00
2023-03-29T07:22:56.567Z,6.30
2023-03-29T07:27:06.842Z,5.30
2023-03-29T07:30:39.213Z,5.40
2023-03-29T07:34:34.143Z,5.80
2023-03-29T07:38:18.008Z,5.30
2023-03-29T07:41:08.984Z,5.10
2023-03-29T07:44:48.853Z,5.40
2023-03-29T07:47:23.782Z,5.70
2023-03-29T07:49:55.053Z,5.20
2023-03-29T07:52:30.660Z,5.20
2023-03-29T07:56:38.256Z,4.60
2023-03-29T08:00:34.010Z,5.30
2023-03-29T08:04:25.982Z,4.80
2023-03-29T08:08:26.191Z,5.50
2023-03-29T08:12:23.793Z,5.40
2023-03-29T08:16:17.138Z,5.60
2023-03-29T08:20:08.959Z,5.30
2023-03-29T08:23:41.147Z,5.60
2023-03-29T08:26:32.731Z,5.70
2023-03-29T08:30:01.538Z,5.90
2023-03-29T08:33:58.090Z,4.90
2023-03-29T08:38:01.580Z,5.40
2023-03-29T08:41:52.822Z,5.10
2023-03-29T08:44:58.605Z,6.50
2023-03-29T08:48:34.043Z,5.70
2023-03-29T08:52:26.777Z,6.00
2023-03-29T08:56:08.869Z,6.00
2023-03-29T09:00:31.985Z,7.10
2023-03-29T09:04:20.379Z,5.00
2023-03-29T09:07:33.315Z,5.30
2023-03-29T09:10:42.412Z,5.30
2023-03-29T09:13:37.868Z,5.50
2023-03-29T09:17:33.344Z,5.50
2023-03-29T09:21:16.594Z,5.30
2023-03-29T09:25:38.343Z,5.20
2023-03-29T09:28:58.071Z,5.90
2023-03-29T09:31:43.845Z,5.40
2023-03-29T09:34:23.254Z,5.50
2023-03-29T09:37:12.723Z,5.40
2023-03-29T09:40:46.244Z,5.30
2023-03-29T09:44:30.367Z,5.20
2023-03-29T09:48:29.236Z,4.50
2023-03-29T09:52:19.256Z,4.30
2023-03-29T09:56:48.846Z,5.00
2023-03-29T09:59:59.908Z,4.40
2023-03-29T10:03:34.302Z,4.80
2023-03-29T10:08:04.013Z,4.50
2023-03-29T10:11:35.748Z,4.70
2023-03-29T10:14:57.306Z,5.30
2023-03-29T10:18:30.597Z,4.60
2023-03-29T10:21:42.687Z,3.90
2023-03-29T10:25:16.017Z,3.90
2023-03-29T10:28:17.738Z,4.00
2023-03-29T10:31:27.966Z,4.60
2023-03-29T10:34:57.679Z,4.20
2023-03-29T10:38:06.676Z,4.70
2023-03-29T10:41:04.747Z,3.70
2023-03-29T10:44:16.257Z,4.50
2023-03-29T10:48:09.637Z,4.00
2023-03-29T10:51:30.691Z,4.10
2023-03-29T10:54:46.765Z,4.00
2023-03-29T10:58:44.179Z,4.00
2023-03-29T11:02:19.275Z,3.90
2023-03-29T11:05:21.224Z,3.00
2023-03-29T11:08:49.784Z,3.10
2023-03-29T11:12:31.545Z,2.90
2023-03-29T11:16:07.097Z,3.20
2023-03-29T11:19:06.891Z,3.20
2023-03-29T11:22:06.074Z,3.10
2023-03-29T11:25:24.461Z,3.20
2023-03-29T11:28:06.344Z,3.40
2023-03-29T11:31:17.288Z,2.90
2023-03-29T11:35:01.375Z,2.80
2023-03-29T11:38:27.794Z,3.00
2023-03-29T11:41:49.615Z,2.80
2023-03-29T11:45:20.631Z,2.70
2023-03-29T11:49:52.558Z,3.20
2023-03-29T11:54:15.236Z,3.20
2023-03-29T11:57:16.266Z,3.80
2023-03-29T12:00:59.908Z,3.10
2023-03-29T12:05:16.665Z,2.50
2023-03-29T12:08:48.916Z,3.00
2023-03-29T12:12:30.781Z,3.10
2023-03-29T12:16:21.596Z,3.10
2023-03-29T12:19:43.644Z,3.50
2023-03-29T12:23:32.478Z,3.10
2023-03-29T12:27:17.515Z,3.60
2023-03-29T12:30:49.758Z,3.00
2023-03-29T12:34:40.469Z,3.00
2023-03-29T12:38:54.047Z,2.70
2023-03-29T12:42:46.809Z,3.10
2023-03-29T12:46:01.340Z,3.30
2023-03-29T12:48:54.983Z,3.50
2023-03-29T12:51:48.499Z,3.80
2023-03-29T12:55:32.946Z,3.40
2023-03-29T12:58:51.257Z,3.50
2023-03-29T13:01:46.734Z,3.00
2023-03-29T13:04:52.031Z,3.30
2023-03-29T13:08:25.577Z,3.10
2023-03-29T13:12:24.977Z,2.90
2023-03-29T13:15:40.323Z,3.20
2023-03-29T13:18:36.151Z,3.50
2023-03-29T13:21:52.172Z,3.00
2023-03-29T13:24:58.043Z,4.20
2023-03-29T13:28:37.768Z,4.10
2023-03-29T13:32:41.814Z,4.90
2023-03-29T13:36:39.593Z,3.60
2023-03-29T13:40:50.993Z,3.70
2023-03-29T13:44:58.022Z,4.30
2023-03-29T13:49:12.817Z,3.70
2023-03-29T13:53:21.724Z,3.70
2023-03-29T13:57:23.104Z,4.50
2023-03-29T14:00:18.341Z,3.50
2023-03-29T14:03:53.230Z,3.60
2023-03-29T14:06:53.915Z,3.90
2023-03-29T14:10:06.543Z,4.30
2023-03-29T14:13:05.066Z,4.50
2023-03-29T14:16:04.463Z,4.70
2023-03-29T14:18:37.456Z,4.00
2023-03-29T14:21:06.503Z,4.00
2023-03-29T14:23:38.651Z,4.70
2023-03-29T14:26:50.614Z,3.80
2023-03-29T14:30:19.465Z,4.50
2023-03-29T14:33:47.228Z,4.40
2023-03-29T14:37:16.423Z,4.10
2023-03-29T14:40:28.881Z,3.70
2023-03-29T14:44:11.428Z,3.90
2023-03-29T14:46:45.966Z,3.30
2023-03-29T14:49:17.455Z,4.10
2023-03-29T14:51:47.546Z,3.70
2023-03-29T14:54:27.134Z,4.00
2023-03-29T14:56:56.347Z,4.00
2023-03-29T14:59:36.636Z,4.20
2023-03-29T15:02:21.919Z,3.90
2023-03-29T15:05:05.103Z,4.30
2023-03-29T15:07:55.747Z,3.70
2023-03-29T15:10:43.005Z,4.20
2023-03-29T15:14:12.775Z,4.00
2023-03-29T15:17:26.994Z,3.90
2023-03-29T15:20:58.065Z,4.20
2023-03-29T15:24:27.427Z,3.60
2023-03-29T15:28:02.080Z,3.70
2023-03-29T15:31:24.547Z,4.00
2023-03-29T15:35:01.581Z,3.80
2023-03-29T15:37:30.739Z,3.70
2023-03-29T15:39:59.044Z,4.00
2023-03-29T15:42:27.185Z,3.80
2023-03-29T15:44:56.513Z,3.90
2023-03-29T15:47:24.605Z,3.90
2023-03-29T15:49:53.058Z,3.90
2023-03-29T15:52:21.818Z,3.80
2023-03-29T15:54:49.961Z,3.70
2023-03-29T15:58:18.974Z,4.30
2023-03-29T16:01:11.490Z,3.40
2023-03-29T16:03:40.305Z,3.70
2023-03-29T16:06:32.199Z,4.20
2023-03-29T16:09:11.972Z,4.40
2023-03-29T16:11:50.794Z,4.00
2023-03-29T16:14:24.729Z,4.30
2023-03-29T16:17:57.380Z,4.10
2023-03-29T16:21:32.295Z,3.80
2023-03-29T16:24:20.241Z,3.60
2023-03-29T16:27:48.004Z,4.00
2023-03-29T16:30:25.372Z,4.40
2023-03-29T16:33:13.047Z,4.00
2023-03-29T16:36:06.311Z,5.10
2023-03-29T16:39:17.987Z,4.20
2023-03-29T16:42:07.878Z,4.20
2023-03-29T16:44:36.523Z,4.00
2023-03-29T16:47:13.087Z,4.50
2023-03-29T16:52:14.692Z,4.60
2023-03-29T16:54:44.051Z,4.60
2023-03-29T16:57:32.043Z,5.50
2023-03-29T17:00:08.196Z,4.70
2023-03-29T17:03:37.426Z,4.80
2023-03-29T17:06:44.742Z,4.80
2023-03-29T17:09:18.144Z,5.20
2023-03-29T17:11:47.286Z,4.90
2023-03-29T17:14:22.025Z,4.70
2023-03-29T17:16:53.123Z,4.80
2023-03-29T17:19:22.861Z,5.00
2023-03-29T17:21:51.835Z,4.60
2023-03-29T17:24:20.732Z,6.00
2023-03-29T17:26:49.872Z,4.70
2023-03-29T17:29:18.517Z,5.10
2023-03-29T17:31:49.484Z,5.10
2023-03-29T17:34:21.332Z,7.10
2023-03-29T17:36:53.884Z,7.90
2023-03-29T17:39:44.324Z,7.20
2023-03-29T17:42:16.067Z,6.90
2023-03-29T17:44:52.159Z,5.70
2023-03-29T17:48:06.592Z,6.90
2023-03-29T17:50:35.609Z,5.20
2023-03-29T17:53:04.388Z,5.40
2023-03-29T17:55:32.578Z,4.60
2023-03-29T17:58:01.727Z,5.00
2023-03-29T18:00:32.616Z,5.70
2023-03-29T18:03:01.114Z,5.40
2023-03-29T18:05:30.401Z,5.60
2023-03-29T18:07:59.212Z,5.20
2023-03-29T18:10:27.843Z,5.00
2023-03-29T18:12:56.202Z,5.40
2023-03-29T18:15:24.475Z,5.30
2023-03-29T18:17:52.672Z,5.20
2023-03-29T18:20:21.594Z,5.60
2023-03-29T18:22:49.778Z,5.20
2023-03-29T18:25:18.538Z,5.20
2023-03-29T18:27:49.564Z,5.00
2023-03-29T18:30:17.884Z,5.00
2023-03-29T18:32:47.835Z,5.40
2023-03-29T18:35:16.093Z,5.00
2023-03-29T18:37:44.363Z,5.30
2023-03-29T18:40:13.878Z,5.90
2023-03-29T18:42:42.546Z,6.30
2023-03-29T18:45:11.445Z,6.30
2023-03-29T18:47:39.480Z,5.40
2023-03-29T18:50:10.299Z,6.10
2023-03-29T18:52:38.510Z,6.90
2023-03-29T18:55:07.576Z,6.80
2023-03-29T18:57:36.027Z,7.00
2023-03-29T19:00:10.591Z,6.60
2023-03-29T19:02:42.648Z,6.50
2023-03-29T19:05:57.204Z,6.90
2023-03-29T19:08:32.160Z,6.90
2023-03-29T19:11:23.597Z,7.50
2023-03-29T19:14:17.471Z,7.40
2023-03-29T19:17:08.449Z,7.70
2023-03-29T19:19:44.672Z,7.20
2023-03-29T19:22:31.243Z,7.00
2023-03-29T19:25:19.456Z,6.70
2023-03-29T19:27:48.915Z,7.20
2023-03-29T19:30:18.435Z,6.90
2023-03-29T19:32:47.004Z,14.10
2023-03-29T19:35:15.923Z,6.90
2023-03-29T19:37:44.648Z,6.60
2023-03-29T19:40:14.076Z,6.60
2023-03-29T19:42:42.245Z,6.90
2023-03-29T19:45:10.862Z,6.50
2023-03-29T19:47:40.779Z,7.60
2023-03-29T19:50:09.525Z,7.20
2023-03-29T19:52:37.788Z,6.70
2023-03-29T19:55:07.710Z,6.90
2023-03-29T19:57:37.364Z,6.50
2023-03-29T20:00:14.417Z,6.30
2023-03-29T20:02:43.257Z,7.00
2023-03-29T20:05:12.588Z,5.80
2023-03-29T20:07:41.854Z,4.90
2023-03-29T20:10:11.125Z,4.60
2023-03-29T20:12:39.451Z,4.60
2023-03-29T20:15:09.134Z,5.00
2023-03-29T20:17:40.981Z,4.60
2023-03-29T20:20:11.220Z,5.80
2023-03-29T20:22:42.361Z,7.00
2023-03-29T20:25:10.564Z,6.90
2023-03-29T20:27:40.932Z,6.70
2023-03-29T20:30:10.909Z,5.60
2023-03-29T20:32:39.158Z,5.10
2023-03-29T20:35:08.976Z,5.50
2023-03-29T20:37:38.172Z,5.80
2023-03-29T20:40:08.792Z,5.40
2023-03-29T20:43:18.372Z,7.30
2023-03-29T20:45:53.994Z,7.60
2023-03-29T20:48:24.471Z,7.60
2023-03-29T20:50:55.567Z,7.80
2023-03-29T20:53:25.289Z,7.00
2023-03-29T20:55:54.335Z,7.10
2023-03-29T20:58:22.805Z,7.10
2023-03-29T21:00:51.256Z,6.70
2023-03-29T21:03:20.406Z,5.80
2023-03-29T21:05:54.529Z,5.60
2023-03-29T21:08:28.696Z,5.10
2023-03-29T21:10:57.141Z,4.60
2023-03-29T21:13:26.023Z,5.00
2023-03-29T21:15:56.088Z,4.60
2023-03-29T21:18:30.354Z,4.50
2023-03-29T21:20:59.191Z,5.40
2023-03-29T21:23:27.698Z,5.70
2023-03-29T21:25:56.261Z,5.50
2023-03-29T21:28:25.300Z,4.80
2023-03-29T21:30:53.952Z,5.10
2023-03-29T21:33:42.993Z,5.10
2023-03-29T21:36:32.269Z,5.40
2023-03-29T21:39:01.239Z,5.20
2023-03-29T21:41:30.810Z,4.90
2023-03-29T21:43:59.621Z,4.60
2023-03-29T21:46:28.506Z,5.00
2023-03-29T21:48:57.562Z,5.00
2023-03-29T21:51:28.409Z,5.00
2023-03-29T21:53:57.389Z,5.00
2023-03-29T21:56:26.406Z,5.40
2023-03-29T21:58:55.002Z,4.70
2023-03-29T22:01:23.480Z,4.50
2023-03-29T22:03:52.168Z,5.00
2023-03-29T22:06:21.532Z,5.40
2023-03-29T22:08:53.148Z,5.00
2023-03-29T22:11:23.432Z,5.00
2023-03-29T22:13:52.583Z,4.80
2023-03-29T22:16:22.275Z,5.10
2023-03-29T22:18:52.902Z,4.90
2023-03-29T22:21:31.290Z,4.70
2023-03-29T22:24:01.454Z,5.60
2023-03-29T22:26:32.322Z,5.20
2023-03-29T22:29:02.067Z,4.90
2023-03-29T22:31:33.096Z,5.60
2023-03-29T22:34:02.960Z,5.90
2023-03-29T22:36:32.553Z,5.40
2023-03-29T22:39:01.003Z,5.40
2023-03-29T22:41:29.933Z,5.60
2023-03-29T22:44:02.253Z,5.20
2023-03-29T22:46:31.546Z,4.80
2023-03-29T22:49:00.467Z,5.10
2023-03-29T22:51:29.311Z,4.80
2023-03-29T22:53:59.520Z,5.40
2023-03-29T22:56:28.798Z,5.40
2023-03-29T22:58:58.370Z,5.30
2023-03-29T23:01:27.710Z,5.00
2023-03-29T23:04:56.722Z,4.60
2023-03-29T23:09:25.618Z,4.60
2023-03-29T23:13:35.850Z,4.60
2023-03-29T23:18:04.935Z,4.10
2023-03-29T23:21:06.362Z,4.10
2023-03-29T23:23:36.430Z,4.60
2023-03-29T23:26:06.711Z,4.60
2023-03-29T23:28:35.774Z,4.20
2023-03-29T23:31:10.645Z,4.50
2023-03-29T23:33:42.936Z,4.10
2023-03-29T23:36:16.844Z,5.00
2023-03-29T23:38:46.896Z,4.50
2023-03-29T23:41:16.997Z,4.40
2023-03-29T23:43:47.547Z,4.60
2023-03-29T23:46:19.080Z,4.40
2023-03-29T23:49:06.245Z,4.20
2023-03-29T23:51:37.017Z,4.20
2023-03-29T23:54:06.548Z,4.50
2023-03-29T23:56:35.769Z,4.50
2023-03-29T23:59:06.005Z,4.20
